Terminal Aerodrome Forecast
Issued by NWS

Home | Current Version | Previous Version | Text Only | Print | Product List | Glossary On
Versions: 1 2 3 4 5 6 7 8 9 10 11 12 13 14 15 16 17 18 19 20 21 22
640
FTUS43 KIND 102325
TAFBMG
TAF
KBMG 102325Z 1100/1124 27007KT P6SM BKN030 BKN100
     FM110500 30004KT P6SM SCT030 BKN100
     FM110700 30004KT P6SM SCT100
     FM111600 33006KT P6SM BKN250
      AMD LTD TO CLD VIS AND WIND 1102/1114=

USA.gov is the U.S. government's official web portal to all federal, state and local government web resources and services.